Orbital elements of FENGYUN 1C DEB
| Launched | 9 May 1999 |
| Flight ended | – |
| Launch site | Taiyuan Space Center, PRC |
| Owner | People's Republic of China |
| NORAD ID | 31362 |
| Date fetched |
Epoch osculation |
Inc. [°] |
Ecc. | RA asc node [hr] |
Arg Peri. [°] |
Mean anom [°] |
Mean motion [rev/day] |
Abs. mag |
| Date fetched |
Epoch osculation |
Inc. [°] |
Ecc. | RA asc node [hr] |
Arg Peri. [°] |
Mean anom [°] |
Mean motion [rev/day] |
Abs. mag |
| 2026 May 10 17:57 | 2026 May 09 17:30:34 | 98.6616 | 0.00189 | 8.3520 | 34.2671 | 325.9720 | 14.17487 | – |
| 2026 May 09 17:57 | 2026 May 05 05:05:16 | 98.6618 | 0.00191 | 8.0584 | 46.7370 | 325.9720 | 14.17487 | – |
| 2026 May 08 17:57 | 2026 May 05 05:05:16 | 98.6618 | 0.00191 | 8.0584 | 46.7370 | 325.9720 | 14.17487 | – |
| 2026 May 07 17:58 | 2026 May 05 05:05:16 | 98.6618 | 0.00191 | 8.0584 | 46.7370 | 325.9720 | 14.17487 | – |
| 2026 May 06 17:57 | 2026 May 05 05:05:16 | 98.6618 | 0.00191 | 8.0584 | 46.7370 | 325.9720 | 14.17487 | – |
| 2026 May 05 17:57 | 2026 May 05 05:05:16 | 98.6618 | 0.00191 | 8.0584 | 46.7370 | 325.9720 | 14.17487 | – |
| 2026 May 04 17:57 | 2026 Apr 30 04:48:26 | 98.6615 | 0.00193 | 7.7326 | 60.2452 | 325.9720 | 14.17487 | – |
| 2026 May 03 17:57 | 2026 Apr 30 04:48:26 | 98.6615 | 0.00193 | 7.7326 | 60.2452 | 325.9720 | 14.17487 | – |
| 2026 May 02 17:57 | 2026 Apr 30 04:48:26 | 98.6615 | 0.00193 | 7.7326 | 60.2452 | 325.9720 | 14.17487 | – |
| 2026 May 01 17:56 | 2026 Apr 30 04:48:26 | 98.6615 | 0.00193 | 7.7326 | 60.2452 | 325.9720 | 14.17487 | – |
| 2026 Apr 30 17:56 | 2026 Apr 30 04:48:26 | 98.6615 | 0.00193 | 7.7326 | 60.2452 | 325.9720 | 14.17487 | – |
| 2026 Apr 29 17:57 | 2026 Apr 23 05:05:29 | 98.6617 | 0.00194 | 7.2784 | 79.0914 | 325.9720 | 14.17487 | – |
| 2026 Apr 28 17:56 | 2026 Apr 23 05:05:29 | 98.6617 | 0.00194 | 7.2784 | 79.0914 | 325.9720 | 14.17487 | – |
| 2026 Apr 27 17:58 | 2026 Apr 23 05:05:29 | 98.6617 | 0.00194 | 7.2784 | 79.0914 | 325.9720 | 14.17487 | – |
| 2026 Apr 26 17:58 | 2026 Apr 23 05:05:29 | 98.6617 | 0.00194 | 7.2784 | 79.0914 | 325.9720 | 14.17487 | – |
| 2026 Apr 25 17:58 | 2026 Apr 23 05:05:29 | 98.6617 | 0.00194 | 7.2784 | 79.0914 | 325.9720 | 14.17487 | – |
| 2026 Apr 24 17:59 | 2026 Apr 23 05:05:29 | 98.6617 | 0.00194 | 7.2784 | 79.0914 | 325.9720 | 14.17487 | – |
| 2026 Apr 23 17:57 | 2026 Apr 19 06:13:18 | 98.6615 | 0.00194 | 7.0215 | 89.6547 | 325.9720 | 14.17487 | – |
| 2026 Apr 22 17:57 | 2026 Apr 19 06:13:18 | 98.6615 | 0.00194 | 7.0215 | 89.6547 | 325.9720 | 14.17487 | – |
| 2026 Apr 21 17:57 | 2026 Apr 19 06:13:18 | 98.6615 | 0.00194 | 7.0215 | 89.6547 | 325.9720 | 14.17487 | – |
| 2026 Apr 20 17:57 | 2026 Apr 19 06:13:18 | 98.6615 | 0.00194 | 7.0215 | 89.6547 | 325.9720 | 14.17487 | – |
| 2026 Apr 19 17:58 | 2026 Apr 19 06:13:18 | 98.6615 | 0.00194 | 7.0215 | 89.6547 | 325.9720 | 14.17487 | – |
| 2026 Apr 18 17:56 | 2026 Apr 11 05:05:37 | 98.6617 | 0.00193 | 6.4984 | 111.4211 | 325.9720 | 14.17487 | – |
| 2026 Apr 16 17:57 | 2026 Apr 11 05:05:37 | 98.6617 | 0.00193 | 6.4984 | 111.4211 | 325.9720 | 14.17487 | – |
| 2026 Apr 14 17:57 | 2026 Apr 11 05:05:37 | 98.6617 | 0.00193 | 6.4984 | 111.4211 | 325.9720 | 14.17487 | – |
| 2026 Apr 13 17:57 | 2026 Apr 11 05:05:37 | 98.6617 | 0.00193 | 6.4984 | 111.4211 | 325.9720 | 14.17487 | – |